createdAt,value
2022-07-29T00:00:21.001Z,46.75
2022-07-29T00:02:48.263Z,46.52
2022-07-29T00:05:15.431Z,47.08
2022-07-29T00:07:42.428Z,47.15
2022-07-29T00:10:09.916Z,47.05
2022-07-29T00:12:37.830Z,47.23
2022-07-29T00:15:05.600Z,47.22
2022-07-29T00:17:32.681Z,47.22
2022-07-29T00:19:59.800Z,47.41
2022-07-29T00:22:26.828Z,47.18
2022-07-29T00:24:53.983Z,47.31
2022-07-29T00:27:38.874Z,47.09
2022-07-29T00:30:06.901Z,47.24
2022-07-29T00:32:34.178Z,47.20
2022-07-29T00:35:20.553Z,47.17
2022-07-29T00:37:47.653Z,47.35
2022-07-29T00:40:14.970Z,47.81
2022-07-29T00:42:51.653Z,47.43
2022-07-29T00:45:19.308Z,47.54
2022-07-29T00:47:46.716Z,47.79
2022-07-29T00:50:15.864Z,47.80
2022-07-29T00:52:44.086Z,47.87
2022-07-29T00:55:13.726Z,47.93
2022-07-29T00:57:42.848Z,47.75
2022-07-29T01:00:14.928Z,48.17
2022-07-29T01:02:42.739Z,48.30
2022-07-29T01:05:11.162Z,48.31
2022-07-29T01:07:40.300Z,48.54
2022-07-29T01:10:09.565Z,48.50
2022-07-29T01:12:38.355Z,48.52
2022-07-29T01:15:07.750Z,48.35
2022-07-29T01:17:52.435Z,48.51
2022-07-29T01:21:06.352Z,48.30
2022-07-29T01:24:12.933Z,48.16
2022-07-29T01:26:50.500Z,48.44
2022-07-29T01:29:38.681Z,48.55
2022-07-29T01:32:27.343Z,48.62
2022-07-29T01:35:18.878Z,49.01
2022-07-29T01:38:15.014Z,48.89
2022-07-29T01:40:54.851Z,48.89
2022-07-29T01:43:43.429Z,48.58
2022-07-29T01:46:15.865Z,49.10
2022-07-29T01:48:46.517Z,49.47
2022-07-29T01:51:30.568Z,49.46
2022-07-29T01:54:09.977Z,49.46
2022-07-29T01:56:37.850Z,49.52
2022-07-29T01:59:06.103Z,49.70
2022-07-29T02:01:34.342Z,49.86
2022-07-29T02:04:04.622Z,50.48
2022-07-29T02:06:34.090Z,50.00
2022-07-29T02:09:01.572Z,50.24
2022-07-29T02:11:28.884Z,49.91
2022-07-29T02:13:58.025Z,50.18
2022-07-29T02:16:26.441Z,49.92
2022-07-29T02:18:54.828Z,50.11
2022-07-29T02:21:26.033Z,50.51
2022-07-29T02:23:56.363Z,50.42
2022-07-29T02:26:24.682Z,51.02
2022-07-29T02:28:53.675Z,51.47
2022-07-29T02:31:23.188Z,52.19
2022-07-29T02:33:51.467Z,51.50
2022-07-29T02:36:18.923Z,51.75
2022-07-29T02:38:54.347Z,51.70
2022-07-29T02:41:27.847Z,51.71
2022-07-29T02:44:03.337Z,51.64
2022-07-29T02:46:32.887Z,51.72
2022-07-29T02:49:23.870Z,53.08
2022-07-29T02:51:59.493Z,53.16
2022-07-29T02:54:43.607Z,53.41
2022-07-29T02:57:22.549Z,53.96
2022-07-29T02:59:51.637Z,53.88
2022-07-29T03:02:18.875Z,54.18
2022-07-29T03:04:46.915Z,54.57
2022-07-29T03:07:15.680Z,54.34
2022-07-29T03:09:43.926Z,54.68
2022-07-29T03:12:11.664Z,54.45
2022-07-29T03:14:39.390Z,54.34
2022-07-29T03:17:06.506Z,54.46
2022-07-29T03:19:33.762Z,54.74
2022-07-29T03:22:02.453Z,54.91
2022-07-29T03:24:36.976Z,54.92
2022-07-29T03:27:05.267Z,55.29
2022-07-29T03:29:33.661Z,55.09
2022-07-29T03:32:07.910Z,54.75
2022-07-29T03:34:36.955Z,55.19
2022-07-29T03:37:03.821Z,54.92
2022-07-29T03:39:35.617Z,54.02
2022-07-29T03:42:03.451Z,53.64
2022-07-29T03:44:32.008Z,53.01
2022-07-29T03:47:00.870Z,52.97
2022-07-29T03:49:28.759Z,52.32
2022-07-29T03:51:55.968Z,52.30
2022-07-29T03:54:23.604Z,52.39
2022-07-29T03:56:53.090Z,51.41
2022-07-29T03:59:21.386Z,52.03
2022-07-29T04:01:49.133Z,51.29
2022-07-29T04:04:17.413Z,51.76
2022-07-29T04:06:48.267Z,51.44
2022-07-29T04:09:15.837Z,51.99
2022-07-29T04:11:57.061Z,51.84
2022-07-29T04:14:33.778Z,52.06
2022-07-29T04:17:02.056Z,52.13
2022-07-29T04:19:29.289Z,52.07
2022-07-29T04:21:56.731Z,51.55
2022-07-29T04:24:23.962Z,51.48
2022-07-29T04:26:51.090Z,51.59
2022-07-29T04:29:18.187Z,51.12
2022-07-29T04:31:45.914Z,51.19
2022-07-29T04:34:13.459Z,51.06
2022-07-29T04:36:40.866Z,51.14
2022-07-29T04:39:08.720Z,50.68
2022-07-29T04:41:35.823Z,50.41
2022-07-29T04:44:06.850Z,50.65
2022-07-29T04:46:35.994Z,50.77
2022-07-29T04:49:04.053Z,50.94
2022-07-29T04:51:31.517Z,50.93
2022-07-29T04:54:00.174Z,50.62
2022-07-29T04:56:28.520Z,50.16
2022-07-29T04:58:55.731Z,50.25
2022-07-29T05:01:22.912Z,49.82
2022-07-29T05:03:49.971Z,49.57
2022-07-29T05:06:17.139Z,48.81
2022-07-29T05:08:44.081Z,48.30
2022-07-29T05:11:12.974Z,48.48
2022-07-29T05:13:45.769Z,48.64
2022-07-29T05:16:14.923Z,48.44
2022-07-29T05:18:43.209Z,48.25
2022-07-29T05:21:11.069Z,48.38
2022-07-29T05:23:38.915Z,47.41
2022-07-29T05:26:05.928Z,47.72
2022-07-29T05:28:36.306Z,47.69
2022-07-29T05:31:03.497Z,47.25
2022-07-29T05:33:36.158Z,47.16
2022-07-29T05:36:08.005Z,46.46
2022-07-29T05:38:36.603Z,46.40
2022-07-29T05:41:04.417Z,46.33
2022-07-29T05:43:32.856Z,45.88
2022-07-29T05:46:00.268Z,45.63
2022-07-29T05:48:27.698Z,45.28
2022-07-29T05:50:56.058Z,45.56
2022-07-29T05:53:23.425Z,45.67
2022-07-29T05:55:50.762Z,45.64
2022-07-29T05:58:24.167Z,45.06
2022-07-29T06:00:51.958Z,44.62
2022-07-29T06:03:18.979Z,44.60
2022-07-29T06:05:48.345Z,44.38
2022-07-29T06:08:15.445Z,45.13
2022-07-29T06:10:42.865Z,44.23
2022-07-29T06:13:10.976Z,43.86
2022-07-29T06:15:38.254Z,44.13
2022-07-29T06:18:08.637Z,43.80
2022-07-29T06:20:36.194Z,44.23
2022-07-29T06:23:05.489Z,44.10
2022-07-29T06:25:35.911Z,44.26
2022-07-29T06:28:03.038Z,44.61
2022-07-29T06:30:30.502Z,45.01
2022-07-29T06:33:05.903Z,45.13
2022-07-29T06:35:38.468Z,45.60
2022-07-29T06:38:25.631Z,46.20
2022-07-29T06:41:07.113Z,46.67
2022-07-29T06:43:42.692Z,46.90
2022-07-29T06:46:21.274Z,47.28
2022-07-29T06:48:49.256Z,47.56
2022-07-29T06:51:22.119Z,47.85
2022-07-29T06:54:00.262Z,48.49
2022-07-29T06:56:38.376Z,50.48
2022-07-29T06:59:09.225Z,53.27
2022-07-29T07:01:41.759Z,54.79
2022-07-29T07:04:10.085Z,54.07
2022-07-29T07:06:38.032Z,56.21
2022-07-29T07:09:06.467Z,56.38
2022-07-29T07:11:34.103Z,57.29
2022-07-29T07:14:03.854Z,58.44
2022-07-29T07:16:32.859Z,56.73
2022-07-29T07:19:00.771Z,58.03
2022-07-29T07:21:30.687Z,58.11
2022-07-29T07:23:59.424Z,57.58
2022-07-29T07:26:26.863Z,56.63
2022-07-29T07:28:54.295Z,56.83
2022-07-29T07:31:21.483Z,56.48
2022-07-29T07:33:49.954Z,56.52
2022-07-29T07:36:17.225Z,56.28
2022-07-29T07:38:44.602Z,56.60
2022-07-29T07:41:12.060Z,56.76
2022-07-29T07:43:41.907Z,57.09
2022-07-29T07:46:09.231Z,57.58
2022-07-29T07:48:37.342Z,57.07
2022-07-29T07:51:04.757Z,57.83
2022-07-29T07:53:31.787Z,57.71
2022-07-29T07:56:10.474Z,57.91
2022-07-29T07:58:38.576Z,58.37
2022-07-29T08:01:08.607Z,58.45
2022-07-29T08:03:36.172Z,59.09
2022-07-29T08:06:04.287Z,58.80
2022-07-29T08:08:32.012Z,57.42
2022-07-29T08:11:02.206Z,57.59
2022-07-29T08:13:33.981Z,57.36
2022-07-29T08:16:12.707Z,57.07
2022-07-29T08:18:42.218Z,57.34
2022-07-29T08:21:09.430Z,57.73
2022-07-29T08:23:47.128Z,57.10
2022-07-29T08:26:16.254Z,58.40
2022-07-29T08:28:49.809Z,58.65
2022-07-29T08:31:18.082Z,57.65
2022-07-29T08:33:45.329Z,59.18
2022-07-29T08:36:14.184Z,58.15
2022-07-29T08:38:41.316Z,58.50
2022-07-29T08:41:08.419Z,58.33
2022-07-29T08:43:38.682Z,58.46
2022-07-29T08:46:06.947Z,57.58
2022-07-29T08:48:34.445Z,56.83
2022-07-29T08:51:02.501Z,56.09
2022-07-29T08:53:31.683Z,56.10
2022-07-29T08:55:59.072Z,55.39
2022-07-29T08:58:27.551Z,55.02
2022-07-29T09:00:58.116Z,54.94
2022-07-29T09:03:31.119Z,54.67
2022-07-29T09:06:00.498Z,54.19
2022-07-29T09:08:27.567Z,53.43
2022-07-29T09:10:57.246Z,53.23
2022-07-29T09:13:24.222Z,53.55
2022-07-29T09:15:51.395Z,52.75
2022-07-29T09:18:38.995Z,53.29
2022-07-29T09:21:26.891Z,53.32
2022-07-29T09:24:14.017Z,53.55
2022-07-29T09:26:42.795Z,52.94
2022-07-29T09:29:21.357Z,52.46
2022-07-29T09:31:50.052Z,51.39
2022-07-29T09:34:28.100Z,50.75
2022-07-29T09:36:56.561Z,48.86
2022-07-29T09:39:46.785Z,47.35
2022-07-29T09:42:16.025Z,45.19
2022-07-29T09:44:44.020Z,42.70
2022-07-29T09:47:13.166Z,42.63
2022-07-29T09:49:59.241Z,42.00
2022-07-29T09:52:32.573Z,41.92
2022-07-29T09:55:18.220Z,41.13
2022-07-29T09:57:47.446Z,40.91
2022-07-29T10:00:18.673Z,41.16
2022-07-29T10:02:47.133Z,41.51
2022-07-29T10:05:25.130Z,41.48
2022-07-29T10:07:57.786Z,41.09
2022-07-29T10:10:27.413Z,39.73
2022-07-29T10:13:04.542Z,39.35
2022-07-29T10:15:39.494Z,39.19
2022-07-29T10:18:07.835Z,39.68
2022-07-29T10:20:35.578Z,39.18
2022-07-29T10:23:04.051Z,39.15
2022-07-29T10:25:31.858Z,38.97
2022-07-29T10:27:59.815Z,38.26
2022-07-29T10:30:27.606Z,37.81
2022-07-29T10:33:19.548Z,38.66
2022-07-29T10:36:09.355Z,38.23
2022-07-29T10:39:07.313Z,36.63
2022-07-29T10:41:53.969Z,36.08
2022-07-29T10:44:26.412Z,36.45
2022-07-29T10:46:55.158Z,37.47
2022-07-29T10:49:27.934Z,36.96
2022-07-29T10:52:10.468Z,37.58
2022-07-29T10:54:53.625Z,37.18
2022-07-29T10:57:52.634Z,36.51
2022-07-29T11:00:14.177Z,35.61
2022-07-29T11:02:47.254Z,35.86
2022-07-29T11:05:22.220Z,35.09
2022-07-29T11:08:20.350Z,36.02
2022-07-29T11:11:35.059Z,35.83
2022-07-29T11:14:04.794Z,35.59
2022-07-29T11:17:06.435Z,35.62
2022-07-29T11:19:35.859Z,35.68
2022-07-29T11:22:03.286Z,36.04
2022-07-29T11:24:35.736Z,35.23
2022-07-29T11:27:21.968Z,35.11
2022-07-29T11:29:52.081Z,35.16
2022-07-29T11:32:23.308Z,34.21
2022-07-29T11:35:38.280Z,35.01
2022-07-29T11:38:31.809Z,33.10
2022-07-29T11:41:19.028Z,35.49
2022-07-29T11:43:54.861Z,34.82
2022-07-29T11:46:49.890Z,36.19
2022-07-29T11:52:15.333Z,34.69
2022-07-29T11:54:57.216Z,35.10
2022-07-29T12:00:46.655Z,34.89
2022-07-29T12:03:33.397Z,34.28
2022-07-29T12:06:13.351Z,33.85
2022-07-29T12:07:03.951Z,36.22
2022-07-29T12:08:44.623Z,34.18
2022-07-29T12:11:23.084Z,34.53
2022-07-29T12:13:52.275Z,34.26
2022-07-29T12:16:25.088Z,33.92
2022-07-29T12:19:02.407Z,34.66
2022-07-29T12:21:56.260Z,35.03
2022-07-29T12:24:26.789Z,35.11
2022-07-29T12:26:59.828Z,34.06
2022-07-29T12:29:35.075Z,33.24
2022-07-29T12:32:04.799Z,32.78
2022-07-29T12:34:33.085Z,31.98
2022-07-29T12:37:00.583Z,32.49
2022-07-29T12:39:29.048Z,32.31
2022-07-29T12:42:04.091Z,32.02
2022-07-29T12:44:51.492Z,31.62
2022-07-29T12:47:19.911Z,31.84
2022-07-29T12:49:48.028Z,31.75
2022-07-29T12:52:44.978Z,30.88
2022-07-29T12:55:12.799Z,30.67
2022-07-29T12:57:51.982Z,31.22
2022-07-29T13:00:30.413Z,31.81
2022-07-29T13:03:23.605Z,32.00
2022-07-29T13:05:52.394Z,32.34
2022-07-29T13:08:22.307Z,32.45
2022-07-29T13:10:50.227Z,31.65
2022-07-29T13:13:17.418Z,31.64
2022-07-29T13:15:47.919Z,31.57
2022-07-29T13:18:47.415Z,31.30
2022-07-29T13:21:19.330Z,30.71
2022-07-29T13:23:46.945Z,30.94
2022-07-29T13:26:15.189Z,31.55
2022-07-29T13:28:44.184Z,32.06
2022-07-29T13:31:14.286Z,31.99
2022-07-29T13:33:44.944Z,32.80
2022-07-29T13:36:11.948Z,33.42
2022-07-29T13:38:39.066Z,33.61
2022-07-29T13:41:07.084Z,34.22
2022-07-29T13:43:34.175Z,34.13
2022-07-29T13:46:01.588Z,34.80
2022-07-29T13:48:28.797Z,34.57
2022-07-29T13:50:55.839Z,33.28
2022-07-29T13:53:26.979Z,33.92
2022-07-29T13:55:56.182Z,33.87
2022-07-29T13:58:23.269Z,33.53
2022-07-29T14:00:50.932Z,34.06
2022-07-29T14:03:18.097Z,33.89
2022-07-29T14:05:45.304Z,32.79
2022-07-29T14:08:12.433Z,33.13
2022-07-29T14:10:39.475Z,33.11
2022-07-29T14:13:06.480Z,33.41
2022-07-29T14:15:51.731Z,33.84
2022-07-29T14:18:18.911Z,33.82
2022-07-29T14:20:46.011Z,33.11
2022-07-29T14:23:13.075Z,33.33
2022-07-29T14:25:43.522Z,34.00
2022-07-29T14:28:11.626Z,34.09
2022-07-29T14:30:43.719Z,35.67
2022-07-29T14:33:11.522Z,36.16
2022-07-29T14:35:38.655Z,36.75
2022-07-29T14:38:07.135Z,36.76
2022-07-29T14:40:34.278Z,35.86
2022-07-29T14:43:01.286Z,35.95
2022-07-29T14:45:29.330Z,35.90
2022-07-29T14:47:57.520Z,35.56
2022-07-29T14:50:31.471Z,35.12
2022-07-29T14:53:02.657Z,34.79
2022-07-29T14:55:30.079Z,34.41
2022-07-29T14:58:07.720Z,34.72
2022-07-29T15:00:37.943Z,33.69
2022-07-29T15:03:06.352Z,34.00
2022-07-29T15:05:33.714Z,34.09
2022-07-29T15:08:00.969Z,33.47
2022-07-29T15:10:29.001Z,33.61
2022-07-29T15:12:57.261Z,34.15
2022-07-29T15:15:27.162Z,34.58
2022-07-29T15:17:56.515Z,34.62
2022-07-29T15:20:27.120Z,35.20
2022-07-29T15:22:56.513Z,34.11
2022-07-29T15:25:24.352Z,34.08
2022-07-29T15:27:53.984Z,33.45
2022-07-29T15:30:33.466Z,33.89
2022-07-29T15:33:03.282Z,34.38
2022-07-29T15:35:30.391Z,34.88
2022-07-29T15:37:58.081Z,35.40
2022-07-29T15:40:25.108Z,35.51
2022-07-29T15:42:52.328Z,34.62
2022-07-29T15:45:19.394Z,34.47
2022-07-29T15:47:47.222Z,34.89
2022-07-29T15:50:17.040Z,34.26
2022-07-29T15:52:44.106Z,34.01
2022-07-29T15:55:14.209Z,33.06
2022-07-29T15:57:41.090Z,33.14
2022-07-29T16:00:08.822Z,32.94
2022-07-29T16:02:36.081Z,33.24
2022-07-29T16:05:03.135Z,32.36
2022-07-29T16:07:31.461Z,33.19
2022-07-29T16:10:01.183Z,33.91
2022-07-29T16:12:28.127Z,34.09
2022-07-29T16:14:55.243Z,34.51
2022-07-29T16:17:23.782Z,34.70
2022-07-29T16:19:50.749Z,34.40
2022-07-29T16:22:17.801Z,33.67
2022-07-29T16:24:44.808Z,33.55
2022-07-29T16:27:11.941Z,33.06
2022-07-29T16:29:39.656Z,32.68
2022-07-29T16:32:07.039Z,32.88
2022-07-29T16:34:34.295Z,32.19
2022-07-29T16:37:01.639Z,32.63
2022-07-29T16:39:29.039Z,33.36
2022-07-29T16:42:00.290Z,32.84
2022-07-29T16:44:29.146Z,32.87
2022-07-29T16:46:58.022Z,33.13
2022-07-29T16:49:27.351Z,32.71
2022-07-29T16:51:54.687Z,32.88
2022-07-29T16:54:21.649Z,32.71
2022-07-29T16:56:48.627Z,32.97
2022-07-29T16:59:15.673Z,33.53
2022-07-29T17:01:42.924Z,33.32
2022-07-29T17:04:12.098Z,33.42
2022-07-29T17:06:40.760Z,33.22
2022-07-29T17:09:09.511Z,33.18
2022-07-29T17:11:53.765Z,33.22
2022-07-29T17:14:25.378Z,33.51
2022-07-29T17:17:03.217Z,33.96
2022-07-29T17:19:33.820Z,34.32
2022-07-29T17:22:11.778Z,34.81
2022-07-29T17:24:41.918Z,35.34
2022-07-29T17:27:10.350Z,36.06
2022-07-29T17:29:39.077Z,35.98
2022-07-29T17:32:07.658Z,36.74
2022-07-29T17:34:40.252Z,36.51
2022-07-29T17:37:09.544Z,36.64
2022-07-29T17:39:41.303Z,36.98
2022-07-29T17:42:10.083Z,36.37
2022-07-29T17:44:37.611Z,37.04
2022-07-29T17:47:16.507Z,36.57
2022-07-29T17:49:45.655Z,36.99
2022-07-29T17:52:13.845Z,36.98
2022-07-29T17:54:41.002Z,37.81
2022-07-29T17:57:08.235Z,38.35
2022-07-29T17:59:45.977Z,38.46
2022-07-29T18:02:14.471Z,39.04
2022-07-29T18:04:41.552Z,38.68
2022-07-29T18:07:10.601Z,39.37
2022-07-29T18:09:37.748Z,39.50
2022-07-29T18:12:05.795Z,38.99
2022-07-29T18:14:33.736Z,39.07
2022-07-29T18:17:01.237Z,39.69
2022-07-29T18:19:29.749Z,39.81
2022-07-29T18:21:59.321Z,40.08
2022-07-29T18:24:32.122Z,40.25
2022-07-29T18:26:59.604Z,40.92
2022-07-29T18:29:29.018Z,41.06
2022-07-29T18:31:56.567Z,41.21
2022-07-29T18:34:27.239Z,41.10
2022-07-29T18:36:54.571Z,41.41
2022-07-29T18:39:21.628Z,41.12
2022-07-29T18:41:51.519Z,41.39
2022-07-29T18:44:22.652Z,41.22
2022-07-29T18:46:51.406Z,41.61
2022-07-29T18:49:19.116Z,41.97
2022-07-29T18:51:46.259Z,41.61
2022-07-29T18:54:13.281Z,41.82
2022-07-29T18:56:40.469Z,41.99
2022-07-29T18:59:07.438Z,41.94
2022-07-29T19:01:34.590Z,42.59
2022-07-29T19:04:01.887Z,42.33
2022-07-29T19:06:29.161Z,41.93
2022-07-29T19:08:58.609Z,42.58
2022-07-29T19:11:25.884Z,42.68
2022-07-29T19:13:52.824Z,43.05
2022-07-29T19:16:19.803Z,43.33
2022-07-29T19:18:47.474Z,43.71
2022-07-29T19:21:19.695Z,43.79
2022-07-29T19:24:05.964Z,43.69
2022-07-29T19:26:42.866Z,43.85
2022-07-29T19:29:11.417Z,44.19
2022-07-29T19:31:40.765Z,44.54
2022-07-29T19:34:10.628Z,44.59
2022-07-29T19:36:38.807Z,45.19
2022-07-29T19:39:05.950Z,45.29
2022-07-29T19:41:39.750Z,45.50
2022-07-29T19:44:06.910Z,45.62
2022-07-29T19:46:35.214Z,46.20
2022-07-29T19:49:07.122Z,46.15
2022-07-29T19:51:34.880Z,46.37
2022-07-29T19:54:20.829Z,46.42
2022-07-29T19:56:48.509Z,46.29
2022-07-29T19:59:16.808Z,46.48
2022-07-29T20:01:44.415Z,47.01
2022-07-29T20:04:14.206Z,46.98
2022-07-29T20:06:45.350Z,47.15
2022-07-29T20:09:16.761Z,47.12
2022-07-29T20:11:48.263Z,47.18
2022-07-29T20:14:15.897Z,47.45
2022-07-29T20:16:43.366Z,47.77
2022-07-29T20:19:13.744Z,48.07
2022-07-29T20:21:41.340Z,48.22
2022-07-29T20:24:11.761Z,47.98
2022-07-29T20:26:39.356Z,47.69
2022-07-29T20:29:07.307Z,48.37
2022-07-29T20:31:35.528Z,48.32
2022-07-29T20:34:05.648Z,48.43
2022-07-29T20:36:35.177Z,48.70
2022-07-29T20:39:02.242Z,49.44
2022-07-29T20:41:29.335Z,49.50
2022-07-29T20:43:56.476Z,49.66
2022-07-29T20:46:23.857Z,50.09
2022-07-29T20:48:50.996Z,49.91
2022-07-29T20:51:20.524Z,50.58
2022-07-29T20:53:50.535Z,50.84
2022-07-29T20:56:17.794Z,50.87
2022-07-29T20:58:46.175Z,51.14
2022-07-29T21:01:13.313Z,50.78
2022-07-29T21:03:40.457Z,51.13
2022-07-29T21:06:09.175Z,51.23
2022-07-29T21:08:36.256Z,51.20
2022-07-29T21:11:03.706Z,51.27
2022-07-29T21:13:31.041Z,51.31
2022-07-29T21:16:02.013Z,51.58
2022-07-29T21:18:32.459Z,51.45
2022-07-29T21:21:04.554Z,51.94
2022-07-29T21:23:31.665Z,51.78
2022-07-29T21:25:58.602Z,51.74
2022-07-29T21:28:41.369Z,51.84
2022-07-29T21:31:13.947Z,51.71
2022-07-29T21:33:43.303Z,51.61
2022-07-29T21:36:42.809Z,51.63
2022-07-29T21:38:57.382Z,51.62
2022-07-29T21:41:24.208Z,51.19
2022-07-29T21:43:52.075Z,51.53
2022-07-29T21:46:22.217Z,51.24
2022-07-29T21:48:51.638Z,51.16
2022-07-29T21:51:18.476Z,51.26
2022-07-29T21:53:45.318Z,51.56
2022-07-29T21:56:14.950Z,51.63
2022-07-29T21:58:41.963Z,51.73
2022-07-29T22:01:11.111Z,51.65
2022-07-29T22:03:40.871Z,51.95
2022-07-29T22:06:17.836Z,52.00
2022-07-29T22:08:45.668Z,52.44
2022-07-29T22:11:12.977Z,52.64
2022-07-29T22:13:39.863Z,52.86
2022-07-29T22:32:01.587Z,53.80
2022-07-29T22:34:49.211Z,54.21
2022-07-29T22:37:36.832Z,54.30
2022-07-29T22:40:24.149Z,54.43
2022-07-29T22:43:18.099Z,54.71
2022-07-29T22:46:05.525Z,55.29
2022-07-29T22:48:52.875Z,55.85
2022-07-29T22:51:40.130Z,56.09
2022-07-29T22:54:27.504Z,56.46
2022-07-29T22:57:14.802Z,57.17
2022-07-29T23:00:02.486Z,57.51
2022-07-29T23:02:49.887Z,57.63
2022-07-29T23:05:37.049Z,58.14
2022-07-29T23:08:24.218Z,58.54
2022-07-29T23:11:11.705Z,58.46
2022-07-29T23:13:58.963Z,59.08
2022-07-29T23:16:46.466Z,59.24
2022-07-29T23:19:33.811Z,59.70
2022-07-29T23:22:21.010Z,60.02
2022-07-29T23:25:08.665Z,59.93
2022-07-29T23:27:55.883Z,60.34
2022-07-29T23:30:43.402Z,60.45
2022-07-29T23:33:31.709Z,60.86
2022-07-29T23:36:21.099Z,60.63
2022-07-29T23:39:13.536Z,60.90
2022-07-29T23:42:01.973Z,61.47
2022-07-29T23:44:50.152Z,62.04
2022-07-29T23:47:37.841Z,62.26
2022-07-29T23:50:25.852Z,62.55
2022-07-29T23:53:14.693Z,62.59
2022-07-29T23:56:03.210Z,62.14
2022-07-29T23:58:50.997Z,62.31
